createdAt,value
2018-12-16T00:00:28.363Z,97746.00
2018-12-16T00:04:30.697Z,97736.00
2018-12-16T00:08:33.035Z,97737.00
2018-12-16T00:12:36.961Z,97720.00
2018-12-16T00:16:40.617Z,97719.00
2018-12-16T00:20:42.978Z,97708.00
2018-12-16T00:24:45.392Z,97703.00
2018-12-16T00:28:47.748Z,97692.00
2018-12-16T00:32:50.126Z,97700.00
2018-12-16T00:36:53.313Z,97689.00
2018-12-16T00:40:55.763Z,97709.00
2018-12-16T00:44:58.171Z,97706.00
2018-12-16T00:49:00.528Z,97713.00
2018-12-16T00:53:02.940Z,97711.00
2018-12-16T00:57:05.387Z,97728.00
2018-12-16T01:01:07.827Z,97739.00
2018-12-16T01:05:11.408Z,97729.00
2018-12-16T01:09:13.922Z,97731.00
2018-12-16T01:13:16.307Z,97733.00
2018-12-16T01:17:18.673Z,97739.00
2018-12-16T01:21:20.992Z,97737.00
2018-12-16T01:25:23.367Z,97739.00
2018-12-16T01:29:25.762Z,97737.00
2018-12-16T01:33:28.136Z,97740.00
2018-12-16T01:37:30.482Z,97723.00
2018-12-16T01:41:32.961Z,97722.00
2018-12-16T01:45:35.257Z,97703.00
2018-12-16T01:49:37.634Z,97697.00
2018-12-16T01:53:39.907Z,97699.00
2018-12-16T01:57:42.281Z,97686.00
2018-12-16T02:01:50.203Z,97667.00
2018-12-16T02:05:52.554Z,97659.00
2018-12-16T02:09:54.940Z,97641.00
2018-12-16T02:13:57.281Z,97623.00
2018-12-16T02:17:59.602Z,97607.00
2018-12-16T02:22:01.956Z,97606.00
2018-12-16T02:26:04.310Z,97592.00
2018-12-16T02:30:06.877Z,97610.00
2018-12-16T02:34:09.247Z,97619.00
2018-12-16T02:38:11.558Z,97610.00
2018-12-16T02:42:13.997Z,97602.00
2018-12-16T02:46:16.350Z,97595.00
2018-12-16T02:50:18.745Z,97589.00
2018-12-16T02:54:21.106Z,97587.00
2018-12-16T02:58:23.582Z,97554.00
2018-12-16T03:02:25.941Z,97556.00
2018-12-16T03:06:28.228Z,97535.00
2018-12-16T03:10:30.552Z,97529.00
2018-12-16T03:14:32.866Z,97517.00
2018-12-16T03:18:35.235Z,97517.00
2018-12-16T03:22:37.545Z,97525.00
2018-12-16T03:26:39.866Z,97519.00
2018-12-16T03:30:42.167Z,97515.00
2018-12-16T03:34:44.541Z,97489.00
2018-12-16T03:38:47.661Z,97474.00
2018-12-16T03:42:50.125Z,97447.00
2018-12-16T03:46:52.521Z,97451.00
2018-12-16T03:50:54.956Z,97463.00
2018-12-16T03:54:57.384Z,97450.00
2018-12-16T03:59:15.354Z,97456.00
2018-12-16T04:03:17.815Z,97450.00
2018-12-16T04:07:20.195Z,97455.00
2018-12-16T04:11:22.696Z,97467.00
2018-12-16T04:15:25.294Z,97457.00
2018-12-16T04:19:27.880Z,97459.00
2018-12-16T04:23:30.194Z,97467.00
2018-12-16T04:27:32.500Z,97441.00
2018-12-16T04:31:34.865Z,97430.00
2018-12-16T04:35:37.210Z,97407.00
2018-12-16T04:39:39.481Z,97423.00
2018-12-16T04:43:41.816Z,97418.00
2018-12-16T04:47:44.207Z,97416.00
2018-12-16T04:51:46.549Z,97408.00
2018-12-16T04:55:48.937Z,97406.00
2018-12-16T04:59:51.286Z,97381.00
2018-12-16T05:03:53.637Z,97393.00
2018-12-16T05:07:56.094Z,97390.00
2018-12-16T05:11:58.492Z,97381.00
2018-12-16T05:16:00.834Z,97389.00
2018-12-16T05:20:03.651Z,97385.00
2018-12-16T05:24:06.030Z,97366.00
2018-12-16T05:28:08.384Z,97384.00
2018-12-16T05:32:10.679Z,97370.00
2018-12-16T05:36:13.011Z,97369.00
2018-12-16T05:40:15.319Z,97357.00
2018-12-16T05:44:17.655Z,97357.00
2018-12-16T05:48:19.969Z,97348.00
2018-12-16T05:52:22.355Z,97351.00
2018-12-16T05:56:24.763Z,97339.00
2018-12-16T06:00:27.092Z,97352.00
2018-12-16T06:04:29.408Z,97357.00
2018-12-16T06:08:31.935Z,97313.00
2018-12-16T06:12:34.258Z,97347.00
2018-12-16T06:16:36.575Z,97357.00
2018-12-16T06:20:38.875Z,97361.00
2018-12-16T06:24:41.233Z,97381.00
2018-12-16T06:28:43.552Z,97362.00
2018-12-16T06:32:45.898Z,97362.00
2018-12-16T06:36:48.233Z,97361.00
2018-12-16T06:40:50.587Z,97378.00
2018-12-16T06:44:52.892Z,97388.00
2018-12-16T06:48:55.225Z,97377.00
2018-12-16T06:52:57.574Z,97367.00
2018-12-16T06:56:59.954Z,97356.00
2018-12-16T07:01:02.359Z,97352.00
2018-12-16T07:05:04.978Z,97359.00
2018-12-16T07:09:07.566Z,97352.00
2018-12-16T07:13:09.923Z,97362.00
2018-12-16T07:17:12.266Z,97358.00
2018-12-16T07:21:14.563Z,97375.00
2018-12-16T07:25:17.298Z,97354.00
2018-12-16T07:29:19.654Z,97344.00
2018-12-16T07:33:21.951Z,97335.00
2018-12-16T07:37:24.262Z,97321.00
2018-12-16T07:41:26.649Z,97336.00
2018-12-16T07:45:28.979Z,97353.00
2018-12-16T07:49:31.321Z,97369.00
2018-12-16T07:53:33.670Z,97366.00
2018-12-16T07:57:36.119Z,97381.00
2018-12-16T08:01:38.524Z,97381.00
2018-12-16T08:05:40.883Z,97383.00
2018-12-16T08:09:43.242Z,97377.00
2018-12-16T08:13:45.566Z,97391.00
2018-12-16T08:17:47.915Z,97396.00
2018-12-16T08:21:50.257Z,97393.00
2018-12-16T08:25:52.593Z,97390.00
2018-12-16T08:29:54.989Z,97382.00
2018-12-16T08:33:57.722Z,97387.00
2018-12-16T08:38:00.011Z,97388.00
2018-12-16T08:42:02.369Z,97397.00
2018-12-16T08:46:04.778Z,97409.00
2018-12-16T08:50:07.183Z,97418.00
2018-12-16T08:54:09.576Z,97412.00
2018-12-16T08:58:11.968Z,97423.00
2018-12-16T09:02:14.274Z,97417.00
2018-12-16T09:06:16.656Z,97419.00
2018-12-16T09:10:19.028Z,97418.00
2018-12-16T09:14:21.379Z,97421.00
2018-12-16T09:18:23.702Z,97418.00
2018-12-16T09:22:26.028Z,97426.00
2018-12-16T09:26:28.492Z,97429.00
2018-12-16T09:30:30.808Z,97432.00
2018-12-16T09:34:33.139Z,97434.00
2018-12-16T09:38:36.693Z,97428.00
2018-12-16T09:42:39.054Z,97426.00
2018-12-16T09:46:42.487Z,97422.00
2018-12-16T09:50:44.880Z,97424.00
2018-12-16T09:54:48.265Z,97427.00
2018-12-16T09:58:50.739Z,97423.00
2018-12-16T10:02:53.257Z,97421.00
2018-12-16T10:06:56.205Z,97422.00
2018-12-16T10:10:59.216Z,97417.00
2018-12-16T10:15:01.608Z,97404.00
2018-12-16T10:19:04.059Z,97397.00
2018-12-16T10:23:07.328Z,97382.00
2018-12-16T10:27:09.667Z,97379.00
2018-12-16T10:31:12.102Z,97358.00
2018-12-16T10:35:14.466Z,97377.00
2018-12-16T10:39:16.904Z,97376.00
2018-12-16T10:43:19.287Z,97376.00
2018-12-16T10:47:21.658Z,97379.00
2018-12-16T10:51:24.038Z,97372.00
2018-12-16T10:55:26.325Z,97364.00
2018-12-16T10:59:28.757Z,97368.00
2018-12-16T11:03:31.089Z,97361.00
2018-12-16T11:07:33.483Z,97365.00
2018-12-16T11:11:35.851Z,97356.00
2018-12-16T11:15:38.222Z,97355.00
2018-12-16T11:19:40.638Z,97365.00
2018-12-16T11:23:43.405Z,97355.00
2018-12-16T11:27:45.782Z,97355.00
2018-12-16T11:31:48.102Z,97353.00
2018-12-16T11:35:50.523Z,97356.00
2018-12-16T11:39:53.613Z,97350.00
2018-12-16T11:43:56.396Z,97356.00
2018-12-16T11:47:58.807Z,97355.00
2018-12-16T11:52:01.186Z,97351.00
2018-12-16T11:56:03.605Z,97343.00
2018-12-16T12:00:06.317Z,97351.00
2018-12-16T12:04:08.814Z,97351.00
2018-12-16T12:08:11.189Z,97357.00
2018-12-16T12:12:13.590Z,97352.00
2018-12-16T12:16:15.978Z,97352.00
2018-12-16T12:20:19.096Z,97364.00
2018-12-16T12:24:21.583Z,97358.00
2018-12-16T12:28:24.057Z,97355.00
2018-12-16T12:32:26.581Z,97350.00
2018-12-16T12:36:30.052Z,97350.00
2018-12-16T12:40:32.412Z,97357.00
2018-12-16T12:44:34.922Z,97366.00
2018-12-16T12:48:37.645Z,97357.00
2018-12-16T12:52:39.984Z,97359.00
2018-12-16T12:56:42.717Z,97363.00
2018-12-16T13:00:45.321Z,97353.00
2018-12-16T13:04:48.398Z,97362.00
2018-12-16T13:08:50.914Z,97355.00
2018-12-16T13:12:53.333Z,97373.00
2018-12-16T13:16:55.938Z,97357.00
2018-12-16T13:20:59.252Z,97371.00
2018-12-16T13:25:13.641Z,97364.00
2018-12-16T13:29:16.125Z,97368.00
2018-12-16T13:33:18.595Z,97357.00
2018-12-16T13:37:21.302Z,97360.00
2018-12-16T13:41:24.357Z,97359.00
2018-12-16T13:45:26.806Z,97370.00
2018-12-16T13:49:29.252Z,97354.00
2018-12-16T13:53:31.839Z,97356.00
2018-12-16T13:57:34.476Z,97355.00
2018-12-16T14:01:36.879Z,97359.00
2018-12-16T14:05:46.602Z,97364.00
2018-12-16T14:09:45.672Z,97358.00
2018-12-16T14:13:48.058Z,97389.00
2018-12-16T14:17:50.623Z,97395.00
2018-12-16T14:21:53.220Z,97407.00
2018-12-16T14:25:55.607Z,97411.00
2018-12-16T14:29:58.010Z,97394.00
2018-12-16T14:34:00.831Z,97371.00
2018-12-16T14:38:03.303Z,97393.00
2018-12-16T14:42:05.694Z,97396.00
2018-12-16T14:46:08.157Z,97399.00
2018-12-16T14:50:10.891Z,97397.00
2018-12-16T14:54:13.401Z,97404.00
2018-12-16T14:58:15.858Z,97407.00
2018-12-16T15:02:19.240Z,97418.00
2018-12-16T15:06:21.582Z,97423.00
2018-12-16T15:10:24.456Z,97417.00
2018-12-16T15:14:27.034Z,97420.00
2018-12-16T15:18:29.886Z,97426.00
2018-12-16T15:22:32.282Z,97412.00
2018-12-16T15:26:35.553Z,97413.00
2018-12-16T15:30:42.589Z,97427.00
2018-12-16T15:34:45.191Z,97412.00
2018-12-16T15:38:47.801Z,97422.00
2018-12-16T15:42:50.195Z,97415.00
2018-12-16T15:46:52.616Z,97418.00
2018-12-16T15:50:55.047Z,97425.00
2018-12-16T15:54:57.514Z,97426.00
2018-12-16T15:58:59.961Z,97439.00
2018-12-16T16:03:02.384Z,97444.00
2018-12-16T16:07:04.724Z,97453.00
2018-12-16T16:11:07.190Z,97451.00
2018-12-16T16:15:09.590Z,97452.00
2018-12-16T16:19:12.012Z,97455.00
2018-12-16T16:23:14.436Z,97472.00
2018-12-16T16:27:16.870Z,97434.00
2018-12-16T16:31:19.239Z,97471.00
2018-12-16T16:35:21.635Z,97479.00
2018-12-16T16:39:23.993Z,97477.00
2018-12-16T16:43:27.144Z,97481.00
2018-12-16T16:47:29.555Z,97478.00
2018-12-16T16:51:31.974Z,97478.00
2018-12-16T16:55:34.455Z,97492.00
2018-12-16T16:59:37.052Z,97499.00
2018-12-16T17:03:39.728Z,97495.00
2018-12-16T17:07:42.201Z,97503.00
2018-12-16T17:11:44.972Z,97498.00
2018-12-16T17:15:47.385Z,97499.00
2018-12-16T17:19:49.805Z,97502.00
2018-12-16T17:23:53.208Z,97504.00
2018-12-16T17:27:55.717Z,97515.00
2018-12-16T17:31:58.116Z,97515.00
2018-12-16T17:36:00.690Z,97510.00
2018-12-16T17:40:03.738Z,97521.00
2018-12-16T17:44:06.744Z,97524.00
2018-12-16T17:48:09.176Z,97515.00
2018-12-16T17:52:11.609Z,97515.00
2018-12-16T17:56:19.063Z,97514.00
2018-12-16T18:00:21.711Z,97513.00
2018-12-16T18:04:24.127Z,97527.00
2018-12-16T18:08:26.985Z,97525.00
2018-12-16T18:12:29.427Z,97527.00
2018-12-16T18:16:31.939Z,97534.00
2018-12-16T18:20:34.331Z,97533.00
2018-12-16T18:24:36.708Z,97529.00
2018-12-16T18:28:39.832Z,97530.00
2018-12-16T18:32:43.039Z,97539.00
2018-12-16T18:36:45.460Z,97531.00
2018-12-16T18:40:48.139Z,97537.00
2018-12-16T18:44:50.749Z,97535.00
2018-12-16T18:48:53.234Z,97548.00
2018-12-16T18:52:55.964Z,97559.00
2018-12-16T18:56:59.425Z,97547.00
2018-12-16T19:01:01.796Z,97551.00
2018-12-16T19:05:04.506Z,97559.00
2018-12-16T19:09:07.674Z,97564.00
2018-12-16T19:13:11.190Z,97572.00
2018-12-16T19:17:13.780Z,97569.00
2018-12-16T19:21:16.284Z,97570.00
2018-12-16T19:25:18.945Z,97572.00
2018-12-16T19:29:21.480Z,97568.00
2018-12-16T19:33:24.032Z,97564.00
2018-12-16T19:37:26.468Z,97579.00
2018-12-16T19:41:29.713Z,97580.00
2018-12-16T19:45:32.439Z,97585.00
2018-12-16T19:49:34.925Z,97592.00
2018-12-16T19:53:38.156Z,97600.00
2018-12-16T19:57:41.127Z,97598.00
2018-12-16T20:01:43.723Z,97600.00
2018-12-16T20:06:55.312Z,97589.00
2018-12-16T20:10:57.736Z,97599.00
2018-12-16T20:15:01.171Z,97600.00
2018-12-16T20:19:03.556Z,97606.00
2018-12-16T20:23:06.017Z,97617.00
2018-12-16T20:27:12.114Z,97615.00
2018-12-16T20:31:21.648Z,97608.00
2018-12-16T20:35:24.180Z,97621.00
2018-12-16T20:39:26.723Z,97621.00
2018-12-16T20:43:29.160Z,97622.00
2018-12-16T20:47:31.940Z,97625.00
2018-12-16T20:51:34.408Z,97631.00
2018-12-16T20:55:36.837Z,97628.00
2018-12-16T20:59:39.669Z,97637.00
2018-12-16T21:03:42.322Z,97621.00
2018-12-16T21:07:46.283Z,97630.00
2018-12-16T21:11:54.596Z,97635.00
2018-12-16T21:16:03.373Z,97635.00
2018-12-16T21:20:14.954Z,97625.00
2018-12-16T21:24:17.853Z,97643.00
2018-12-16T21:28:21.393Z,97628.00
2018-12-16T21:32:24.065Z,97633.00
2018-12-16T21:36:28.092Z,97640.00
2018-12-16T21:40:30.510Z,97638.00
2018-12-16T21:44:32.942Z,97642.00
2018-12-16T21:48:35.346Z,97646.00
2018-12-16T21:52:37.713Z,97646.00
2018-12-16T21:56:40.097Z,97654.00
2018-12-16T22:00:43.408Z,97655.00
2018-12-16T22:04:45.835Z,97658.00
2018-12-16T22:08:48.245Z,97658.00
2018-12-16T22:12:50.919Z,97654.00
2018-12-16T22:16:53.805Z,97669.00
2018-12-16T22:20:56.266Z,97666.00
2018-12-16T22:24:59.211Z,97660.00
2018-12-16T22:29:01.820Z,97673.00
2018-12-16T22:33:04.666Z,97684.00
2018-12-16T22:37:07.050Z,97696.00
2018-12-16T22:41:09.756Z,97683.00
2018-12-16T22:45:12.269Z,97690.00
2018-12-16T22:49:14.675Z,97691.00
2018-12-16T22:53:17.025Z,97681.00
2018-12-16T22:57:19.439Z,97682.00
2018-12-16T23:01:21.901Z,97685.00
2018-12-16T23:05:24.316Z,97679.00
2018-12-16T23:09:26.779Z,97684.00
2018-12-16T23:13:29.161Z,97667.00
2018-12-16T23:17:31.525Z,97678.00
2018-12-16T23:21:34.114Z,97687.00
2018-12-16T23:25:36.440Z,97682.00
2018-12-16T23:29:38.740Z,97689.00
2018-12-16T23:33:41.331Z,97682.00
2018-12-16T23:37:43.671Z,97685.00
2018-12-16T23:41:46.079Z,97690.00
2018-12-16T23:45:48.431Z,97693.00
2018-12-16T23:49:50.860Z,97706.00
2018-12-16T23:53:53.226Z,97705.00
2018-12-16T23:58:01.042Z,97704.00
